sensor_id;sensor_type;location;lat;lon;timestamp;P1;durP1;ratioP1;P2;durP2;ratioP2
43088;SDS011;28709;52.030;5.652;2023-11-21T00:01:17;15.25;;;8.77;;
43088;SDS011;28709;52.030;5.652;2023-11-21T00:03:43;15.68;;;7.45;;
43088;SDS011;28709;52.030;5.652;2023-11-21T00:06:09;12.60;;;7.70;;
43088;SDS011;28709;52.030;5.652;2023-11-21T00:08:35;15.15;;;8.35;;
43088;SDS011;28709;52.030;5.652;2023-11-21T00:11:01;19.23;;;8.93;;
43088;SDS011;28709;52.030;5.652;2023-11-21T00:13:27;14.85;;;8.60;;
43088;SDS011;28709;52.030;5.652;2023-11-21T00:15:53;15.18;;;8.10;;
43088;SDS011;28709;52.030;5.652;2023-11-21T00:18:18;15.48;;;8.55;;
43088;SDS011;28709;52.030;5.652;2023-11-21T00:20:44;14.05;;;8.07;;
43088;SDS011;28709;52.030;5.652;2023-11-21T00:23:10;13.32;;;8.23;;
43088;SDS011;28709;52.030;5.652;2023-11-21T00:25:35;14.38;;;8.10;;
43088;SDS011;28709;52.030;5.652;2023-11-21T00:28:01;14.27;;;7.75;;
43088;SDS011;28709;52.030;5.652;2023-11-21T00:30:27;16.65;;;8.18;;
43088;SDS011;28709;52.030;5.652;2023-11-21T00:32:54;17.13;;;8.98;;
43088;SDS011;28709;52.030;5.652;2023-11-21T00:35:19;14.75;;;8.18;;
43088;SDS011;28709;52.030;5.652;2023-11-21T00:37:45;15.63;;;8.38;;
43088;SDS011;28709;52.030;5.652;2023-11-21T00:40:12;17.83;;;8.40;;
43088;SDS011;28709;52.030;5.652;2023-11-21T00:42:38;17.27;;;8.90;;
43088;SDS011;28709;52.030;5.652;2023-11-21T00:45:04;15.95;;;8.55;;
43088;SDS011;28709;52.030;5.652;2023-11-21T00:47:31;15.98;;;8.13;;
43088;SDS011;28709;52.030;5.652;2023-11-21T00:49:56;16.52;;;9.93;;
43088;SDS011;28709;52.030;5.652;2023-11-21T00:52:22;15.80;;;8.70;;
43088;SDS011;28709;52.030;5.652;2023-11-21T00:54:47;17.98;;;8.63;;
43088;SDS011;28709;52.030;5.652;2023-11-21T00:57:14;14.32;;;8.25;;
43088;SDS011;28709;52.030;5.652;2023-11-21T00:59:40;18.40;;;8.90;;
43088;SDS011;28709;52.030;5.652;2023-11-21T01:02:05;19.05;;;9.00;;
43088;SDS011;28709;52.030;5.652;2023-11-21T01:04:35;15.93;;;8.40;;
43088;SDS011;28709;52.030;5.652;2023-11-21T01:07:00;13.77;;;8.20;;
43088;SDS011;28709;52.030;5.652;2023-11-21T01:09:26;15.38;;;8.73;;
43088;SDS011;28709;52.030;5.652;2023-11-21T01:11:53;13.48;;;8.13;;
43088;SDS011;28709;52.030;5.652;2023-11-21T01:14:18;16.55;;;8.25;;
43088;SDS011;28709;52.030;5.652;2023-11-21T01:16:44;19.25;;;8.75;;
43088;SDS011;28709;52.030;5.652;2023-11-21T01:19:10;14.45;;;7.90;;
43088;SDS011;28709;52.030;5.652;2023-11-21T01:21:36;17.15;;;8.30;;
43088;SDS011;28709;52.030;5.652;2023-11-21T01:24:02;18.35;;;8.50;;
43088;SDS011;28709;52.030;5.652;2023-11-21T01:26:28;14.35;;;8.30;;
43088;SDS011;28709;52.030;5.652;2023-11-21T01:28:53;14.82;;;8.52;;
43088;SDS011;28709;52.030;5.652;2023-11-21T01:31:19;14.93;;;8.68;;
43088;SDS011;28709;52.030;5.652;2023-11-21T01:33:45;14.18;;;7.63;;
43088;SDS011;28709;52.030;5.652;2023-11-21T01:36:11;19.80;;;9.10;;
43088;SDS011;28709;52.030;5.652;2023-11-21T01:38:37;19.00;;;9.52;;
43088;SDS011;28709;52.030;5.652;2023-11-21T01:41:02;23.00;;;11.20;;
43088;SDS011;28709;52.030;5.652;2023-11-21T01:43:29;31.98;;;13.20;;
43088;SDS011;28709;52.030;5.652;2023-11-21T01:45:56;29.58;;;14.10;;
43088;SDS011;28709;52.030;5.652;2023-11-21T01:48:23;24.58;;;12.05;;
43088;SDS011;28709;52.030;5.652;2023-11-21T01:50:50;26.73;;;12.35;;
43088;SDS011;28709;52.030;5.652;2023-11-21T01:53:16;28.67;;;13.40;;
43088;SDS011;28709;52.030;5.652;2023-11-21T01:55:41;32.08;;;13.95;;
43088;SDS011;28709;52.030;5.652;2023-11-21T01:58:08;26.35;;;12.77;;
43088;SDS011;28709;52.030;5.652;2023-11-21T02:00:36;18.85;;;10.77;;
43088;SDS011;28709;52.030;5.652;2023-11-21T02:03:03;18.63;;;10.10;;
43088;SDS011;28709;52.030;5.652;2023-11-21T02:05:29;20.58;;;10.18;;
43088;SDS011;28709;52.030;5.652;2023-11-21T02:07:55;22.58;;;11.93;;
43088;SDS011;28709;52.030;5.652;2023-11-21T02:10:21;27.60;;;12.90;;
43088;SDS011;28709;52.030;5.652;2023-11-21T02:12:50;27.42;;;13.95;;
43088;SDS011;28709;52.030;5.652;2023-11-21T02:15:15;44.65;;;14.98;;
43088;SDS011;28709;52.030;5.652;2023-11-21T02:17:45;26.75;;;13.18;;
43088;SDS011;28709;52.030;5.652;2023-11-21T02:20:16;21.80;;;11.85;;
43088;SDS011;28709;52.030;5.652;2023-11-21T02:22:43;21.55;;;10.25;;
43088;SDS011;28709;52.030;5.652;2023-11-21T02:25:27;18.45;;;10.23;;
43088;SDS011;28709;52.030;5.652;2023-11-21T02:27:57;19.75;;;10.10;;
43088;SDS011;28709;52.030;5.652;2023-11-21T02:30:24;19.65;;;9.30;;
43088;SDS011;28709;52.030;5.652;2023-11-21T02:33:02;16.60;;;9.40;;
43088;SDS011;28709;52.030;5.652;2023-11-21T02:35:27;17.95;;;9.55;;
43088;SDS011;28709;52.030;5.652;2023-11-21T02:37:53;16.80;;;9.40;;
43088;SDS011;28709;52.030;5.652;2023-11-21T02:40:19;16.85;;;9.52;;
43088;SDS011;28709;52.030;5.652;2023-11-21T02:42:49;17.88;;;9.63;;
43088;SDS011;28709;52.030;5.652;2023-11-21T02:45:18;16.95;;;9.23;;
43088;SDS011;28709;52.030;5.652;2023-11-21T02:47:46;15.55;;;9.23;;
43088;SDS011;28709;52.030;5.652;2023-11-21T02:50:12;13.02;;;7.97;;
43088;SDS011;28709;52.030;5.652;2023-11-21T02:52:38;13.98;;;8.93;;
43088;SDS011;28709;52.030;5.652;2023-11-21T02:55:05;17.92;;;9.88;;
43088;SDS011;28709;52.030;5.652;2023-11-21T02:57:34;17.77;;;9.27;;
43088;SDS011;28709;52.030;5.652;2023-11-21T02:59:59;24.92;;;12.20;;
43088;SDS011;28709;52.030;5.652;2023-11-21T03:02:25;22.02;;;10.90;;
43088;SDS011;28709;52.030;5.652;2023-11-21T03:04:51;22.85;;;11.75;;
43088;SDS011;28709;52.030;5.652;2023-11-21T03:07:17;20.48;;;11.52;;
43088;SDS011;28709;52.030;5.652;2023-11-21T03:09:44;22.80;;;11.88;;
43088;SDS011;28709;52.030;5.652;2023-11-21T03:12:12;18.38;;;11.10;;
43088;SDS011;28709;52.030;5.652;2023-11-21T03:14:41;23.27;;;11.35;;
43088;SDS011;28709;52.030;5.652;2023-11-21T03:17:06;19.08;;;10.35;;
43088;SDS011;28709;52.030;5.652;2023-11-21T03:19:32;23.30;;;12.45;;
43088;SDS011;28709;52.030;5.652;2023-11-21T03:21:58;19.60;;;10.65;;
43088;SDS011;28709;52.030;5.652;2023-11-21T03:24:24;23.85;;;12.60;;
43088;SDS011;28709;52.030;5.652;2023-11-21T03:26:50;25.48;;;11.88;;
43088;SDS011;28709;52.030;5.652;2023-11-21T03:29:16;23.02;;;11.75;;
43088;SDS011;28709;52.030;5.652;2023-11-21T03:31:41;18.63;;;10.65;;
43088;SDS011;28709;52.030;5.652;2023-11-21T03:34:10;25.73;;;14.00;;
43088;SDS011;28709;52.030;5.652;2023-11-21T03:36:40;24.75;;;12.50;;
43088;SDS011;28709;52.030;5.652;2023-11-21T03:39:06;28.05;;;13.75;;
43088;SDS011;28709;52.030;5.652;2023-11-21T03:41:32;25.25;;;11.13;;
43088;SDS011;28709;52.030;5.652;2023-11-21T03:43:59;22.45;;;11.93;;
43088;SDS011;28709;52.030;5.652;2023-11-21T03:46:24;27.40;;;14.55;;
43088;SDS011;28709;52.030;5.652;2023-11-21T03:48:51;21.83;;;11.32;;
43088;SDS011;28709;52.030;5.652;2023-11-21T03:51:17;19.85;;;10.60;;
43088;SDS011;28709;52.030;5.652;2023-11-21T03:53:43;21.63;;;11.82;;
43088;SDS011;28709;52.030;5.652;2023-11-21T03:56:08;22.52;;;10.63;;
43088;SDS011;28709;52.030;5.652;2023-11-21T03:58:34;21.20;;;11.13;;
43088;SDS011;28709;52.030;5.652;2023-11-21T04:01:00;26.65;;;12.32;;
43088;SDS011;28709;52.030;5.652;2023-11-21T04:03:26;24.65;;;12.15;;
43088;SDS011;28709;52.030;5.652;2023-11-21T04:05:52;23.73;;;13.20;;
43088;SDS011;28709;52.030;5.652;2023-11-21T04:08:17;27.88;;;15.23;;
43088;SDS011;28709;52.030;5.652;2023-11-21T04:10:43;24.20;;;12.45;;
43088;SDS011;28709;52.030;5.652;2023-11-21T04:13:09;38.03;;;16.63;;
43088;SDS011;28709;52.030;5.652;2023-11-21T04:15:35;22.75;;;11.25;;
43088;SDS011;28709;52.030;5.652;2023-11-21T04:18:01;17.98;;;10.40;;
43088;SDS011;28709;52.030;5.652;2023-11-21T04:20:26;18.80;;;9.63;;
43088;SDS011;28709;52.030;5.652;2023-11-21T04:22:52;17.02;;;9.35;;
43088;SDS011;28709;52.030;5.652;2023-11-21T04:25:18;15.13;;;8.23;;
43088;SDS011;28709;52.030;5.652;2023-11-21T04:27:44;20.20;;;10.55;;
43088;SDS011;28709;52.030;5.652;2023-11-21T04:30:10;16.88;;;9.65;;
43088;SDS011;28709;52.030;5.652;2023-11-21T04:32:37;19.98;;;11.18;;
43088;SDS011;28709;52.030;5.652;2023-11-21T04:35:04;14.23;;;9.05;;
43088;SDS011;28709;52.030;5.652;2023-11-21T04:37:30;19.23;;;9.98;;
43088;SDS011;28709;52.030;5.652;2023-11-21T04:39:55;17.60;;;9.93;;
43088;SDS011;28709;52.030;5.652;2023-11-21T04:42:21;19.15;;;9.57;;
43088;SDS011;28709;52.030;5.652;2023-11-21T04:44:47;18.17;;;9.95;;
43088;SDS011;28709;52.030;5.652;2023-11-21T04:47:13;19.92;;;11.07;;
43088;SDS011;28709;52.030;5.652;2023-11-21T04:49:41;19.33;;;10.15;;
43088;SDS011;28709;52.030;5.652;2023-11-21T04:52:08;19.75;;;10.10;;
43088;SDS011;28709;52.030;5.652;2023-11-21T04:54:34;17.50;;;10.43;;
43088;SDS011;28709;52.030;5.652;2023-11-21T04:57:00;15.15;;;8.63;;
43088;SDS011;28709;52.030;5.652;2023-11-21T04:59:26;19.90;;;8.93;;
43088;SDS011;28709;52.030;5.652;2023-11-21T05:01:52;17.00;;;8.32;;
43088;SDS011;28709;52.030;5.652;2023-11-21T05:04:19;15.93;;;8.55;;
43088;SDS011;28709;52.030;5.652;2023-11-21T05:06:47;17.45;;;8.55;;
43088;SDS011;28709;52.030;5.652;2023-11-21T05:09:13;21.50;;;10.65;;
43088;SDS011;28709;52.030;5.652;2023-11-21T05:11:38;15.93;;;9.23;;
43088;SDS011;28709;52.030;5.652;2023-11-21T05:14:05;21.70;;;11.35;;
43088;SDS011;28709;52.030;5.652;2023-11-21T05:16:31;23.20;;;10.50;;
43088;SDS011;28709;52.030;5.652;2023-11-21T05:18:58;15.73;;;8.57;;
43088;SDS011;28709;52.030;5.652;2023-11-21T05:21:26;17.95;;;9.45;;
43088;SDS011;28709;52.030;5.652;2023-11-21T05:23:52;20.55;;;9.32;;
43088;SDS011;28709;52.030;5.652;2023-11-21T05:26:17;18.33;;;9.90;;
43088;SDS011;28709;52.030;5.652;2023-11-21T05:28:43;21.00;;;10.00;;
43088;SDS011;28709;52.030;5.652;2023-11-21T05:31:09;17.42;;;9.00;;
43088;SDS011;28709;52.030;5.652;2023-11-21T05:33:35;18.15;;;9.52;;
43088;SDS011;28709;52.030;5.652;2023-11-21T05:36:01;18.33;;;8.68;;
43088;SDS011;28709;52.030;5.652;2023-11-21T05:38:27;22.08;;;10.75;;
43088;SDS011;28709;52.030;5.652;2023-11-21T05:40:53;19.27;;;9.70;;
43088;SDS011;28709;52.030;5.652;2023-11-21T05:43:19;15.18;;;8.50;;
43088;SDS011;28709;52.030;5.652;2023-11-21T05:45:45;15.07;;;8.05;;
43088;SDS011;28709;52.030;5.652;2023-11-21T05:48:10;16.33;;;8.25;;
43088;SDS011;28709;52.030;5.652;2023-11-21T05:50:36;16.05;;;9.00;;
43088;SDS011;28709;52.030;5.652;2023-11-21T05:53:03;18.80;;;8.20;;
43088;SDS011;28709;52.030;5.652;2023-11-21T05:55:29;19.17;;;8.50;;
43088;SDS011;28709;52.030;5.652;2023-11-21T05:57:54;15.63;;;7.88;;
43088;SDS011;28709;52.030;5.652;2023-11-21T06:00:20;15.98;;;8.18;;
43088;SDS011;28709;52.030;5.652;2023-11-21T06:02:50;19.65;;;8.60;;
43088;SDS011;28709;52.030;5.652;2023-11-21T06:05:21;19.20;;;9.50;;
43088;SDS011;28709;52.030;5.652;2023-11-21T06:07:48;18.10;;;9.35;;
43088;SDS011;28709;52.030;5.652;2023-11-21T06:10:14;19.38;;;9.20;;
43088;SDS011;28709;52.030;5.652;2023-11-21T06:12:42;15.02;;;8.45;;
43088;SDS011;28709;52.030;5.652;2023-11-21T06:15:09;20.00;;;9.25;;
43088;SDS011;28709;52.030;5.652;2023-11-21T06:17:38;19.70;;;9.15;;
43088;SDS011;28709;52.030;5.652;2023-11-21T06:20:08;18.80;;;8.88;;
43088;SDS011;28709;52.030;5.652;2023-11-21T06:22:44;19.55;;;8.85;;
43088;SDS011;28709;52.030;5.652;2023-11-21T06:25:11;16.75;;;8.75;;
43088;SDS011;28709;52.030;5.652;2023-11-21T06:27:41;15.63;;;8.45;;
43088;SDS011;28709;52.030;5.652;2023-11-21T06:30:08;26.38;;;10.13;;
43088;SDS011;28709;52.030;5.652;2023-11-21T06:32:38;20.30;;;10.25;;
43088;SDS011;28709;52.030;5.652;2023-11-21T06:35:05;25.73;;;10.85;;
43088;SDS011;28709;52.030;5.652;2023-11-21T06:37:31;21.92;;;10.30;;
43088;SDS011;28709;52.030;5.652;2023-11-21T06:39:57;21.85;;;10.02;;
43088;SDS011;28709;52.030;5.652;2023-11-21T06:42:24;16.45;;;8.68;;
43088;SDS011;28709;52.030;5.652;2023-11-21T06:44:50;18.48;;;9.00;;
43088;SDS011;28709;52.030;5.652;2023-11-21T06:47:22;17.10;;;9.30;;
43088;SDS011;28709;52.030;5.652;2023-11-21T06:49:51;16.48;;;9.02;;
43088;SDS011;28709;52.030;5.652;2023-11-21T06:52:17;12.05;;;7.82;;
43088;SDS011;28709;52.030;5.652;2023-11-21T06:54:43;20.10;;;9.20;;
43088;SDS011;28709;52.030;5.652;2023-11-21T06:57:10;26.65;;;10.32;;
43088;SDS011;28709;52.030;5.652;2023-11-21T06:59:36;21.00;;;10.23;;
43088;SDS011;28709;52.030;5.652;2023-11-21T07:02:01;18.42;;;9.35;;
43088;SDS011;28709;52.030;5.652;2023-11-21T07:04:27;25.95;;;10.63;;
43088;SDS011;28709;52.030;5.652;2023-11-21T07:06:53;18.25;;;8.95;;
43088;SDS011;28709;52.030;5.652;2023-11-21T07:09:19;23.73;;;10.80;;
43088;SDS011;28709;52.030;5.652;2023-11-21T07:11:48;21.50;;;9.48;;
43088;SDS011;28709;52.030;5.652;2023-11-21T07:14:15;20.45;;;10.10;;
43088;SDS011;28709;52.030;5.652;2023-11-21T07:16:42;18.30;;;9.43;;
43088;SDS011;28709;52.030;5.652;2023-11-21T07:19:07;19.75;;;9.05;;
43088;SDS011;28709;52.030;5.652;2023-11-21T07:21:34;22.42;;;9.02;;
43088;SDS011;28709;52.030;5.652;2023-11-21T07:24:00;22.60;;;10.27;;
43088;SDS011;28709;52.030;5.652;2023-11-21T07:26:31;21.85;;;10.13;;
43088;SDS011;28709;52.030;5.652;2023-11-21T07:28:58;22.33;;;11.30;;
43088;SDS011;28709;52.030;5.652;2023-11-21T07:31:24;21.48;;;10.38;;
43088;SDS011;28709;52.030;5.652;2023-11-21T07:33:50;21.70;;;9.75;;
43088;SDS011;28709;52.030;5.652;2023-11-21T07:36:17;22.77;;;9.15;;
43088;SDS011;28709;52.030;5.652;2023-11-21T07:38:43;26.48;;;12.50;;
43088;SDS011;28709;52.030;5.652;2023-11-21T07:41:10;39.33;;;15.40;;
43088;SDS011;28709;52.030;5.652;2023-11-21T07:43:36;41.10;;;15.85;;
43088;SDS011;28709;52.030;5.652;2023-11-21T07:46:02;23.00;;;12.18;;
43088;SDS011;28709;52.030;5.652;2023-11-21T07:48:29;30.20;;;13.18;;
43088;SDS011;28709;52.030;5.652;2023-11-21T07:50:56;24.48;;;12.60;;
43088;SDS011;28709;52.030;5.652;2023-11-21T07:53:23;28.30;;;11.43;;
43088;SDS011;28709;52.030;5.652;2023-11-21T07:55:50;23.17;;;10.25;;
43088;SDS011;28709;52.030;5.652;2023-11-21T07:58:17;17.60;;;8.73;;
43088;SDS011;28709;52.030;5.652;2023-11-21T08:00:43;16.02;;;8.35;;
43088;SDS011;28709;52.030;5.652;2023-11-21T08:03:09;18.98;;;8.82;;
43088;SDS011;28709;52.030;5.652;2023-11-21T08:05:35;14.65;;;9.45;;
43088;SDS011;28709;52.030;5.652;2023-11-21T08:08:00;15.75;;;8.88;;
43088;SDS011;28709;52.030;5.652;2023-11-21T08:10:26;16.88;;;8.80;;
43088;SDS011;28709;52.030;5.652;2023-11-21T08:12:52;15.85;;;9.70;;
43088;SDS011;28709;52.030;5.652;2023-11-21T08:15:18;17.85;;;9.77;;
43088;SDS011;28709;52.030;5.652;2023-11-21T08:17:44;26.40;;;11.98;;
43088;SDS011;28709;52.030;5.652;2023-11-21T08:20:11;23.85;;;10.60;;
43088;SDS011;28709;52.030;5.652;2023-11-21T08:22:37;22.77;;;10.95;;
43088;SDS011;28709;52.030;5.652;2023-11-21T08:25:06;20.90;;;9.98;;
43088;SDS011;28709;52.030;5.652;2023-11-21T08:27:33;24.17;;;11.02;;
43088;SDS011;28709;52.030;5.652;2023-11-21T08:29:59;35.92;;;14.80;;
43088;SDS011;28709;52.030;5.652;2023-11-21T08:32:28;30.15;;;14.05;;
43088;SDS011;28709;52.030;5.652;2023-11-21T08:34:58;45.20;;;15.40;;
43088;SDS011;28709;52.030;5.652;2023-11-21T08:37:24;37.22;;;15.55;;
43088;SDS011;28709;52.030;5.652;2023-11-21T08:39:52;32.78;;;15.38;;
43088;SDS011;28709;52.030;5.652;2023-11-21T08:42:18;31.48;;;14.02;;
43088;SDS011;28709;52.030;5.652;2023-11-21T08:44:44;26.27;;;14.13;;
43088;SDS011;28709;52.030;5.652;2023-11-21T08:47:10;23.98;;;12.15;;
43088;SDS011;28709;52.030;5.652;2023-11-21T08:49:36;29.15;;;12.05;;
43088;SDS011;28709;52.030;5.652;2023-11-21T08:52:03;21.15;;;9.90;;
43088;SDS011;28709;52.030;5.652;2023-11-21T08:54:30;29.48;;;12.00;;
43088;SDS011;28709;52.030;5.652;2023-11-21T08:56:56;20.13;;;10.02;;
43088;SDS011;28709;52.030;5.652;2023-11-21T08:59:23;18.80;;;10.18;;
43088;SDS011;28709;52.030;5.652;2023-11-21T09:01:49;22.70;;;9.90;;
43088;SDS011;28709;52.030;5.652;2023-11-21T09:04:15;24.25;;;11.10;;
43088;SDS011;28709;52.030;5.652;2023-11-21T09:06:40;25.55;;;10.82;;
43088;SDS011;28709;52.030;5.652;2023-11-21T09:09:06;26.80;;;11.93;;
43088;SDS011;28709;52.030;5.652;2023-11-21T09:11:33;27.95;;;10.48;;
43088;SDS011;28709;52.030;5.652;2023-11-21T09:13:59;24.90;;;10.93;;
43088;SDS011;28709;52.030;5.652;2023-11-21T09:16:25;23.45;;;10.23;;
43088;SDS011;28709;52.030;5.652;2023-11-21T09:18:51;25.55;;;11.15;;
43088;SDS011;28709;52.030;5.652;2023-11-21T09:21:17;24.85;;;12.27;;
43088;SDS011;28709;52.030;5.652;2023-11-21T09:23:44;28.35;;;13.30;;
43088;SDS011;28709;52.030;5.652;2023-11-21T09:26:09;31.70;;;13.30;;
43088;SDS011;28709;52.030;5.652;2023-11-21T09:28:35;23.70;;;12.13;;
43088;SDS011;28709;52.030;5.652;2023-11-21T09:31:03;23.25;;;13.10;;
43088;SDS011;28709;52.030;5.652;2023-11-21T09:33:34;21.90;;;11.52;;
43088;SDS011;28709;52.030;5.652;2023-11-21T09:35:59;19.45;;;11.90;;
43088;SDS011;28709;52.030;5.652;2023-11-21T09:38:26;16.52;;;10.07;;
43088;SDS011;28709;52.030;5.652;2023-11-21T09:40:54;19.10;;;11.25;;
43088;SDS011;28709;52.030;5.652;2023-11-21T09:43:20;22.67;;;11.32;;
43088;SDS011;28709;52.030;5.652;2023-11-21T09:45:47;19.13;;;10.63;;
43088;SDS011;28709;52.030;5.652;2023-11-21T09:48:18;17.88;;;10.45;;
43088;SDS011;28709;52.030;5.652;2023-11-21T09:50:45;19.00;;;10.38;;
43088;SDS011;28709;52.030;5.652;2023-11-21T09:55:42;20.15;;;11.02;;
43088;SDS011;28709;52.030;5.652;2023-11-21T09:58:09;15.65;;;9.88;;
43088;SDS011;28709;52.030;5.652;2023-11-21T10:00:39;19.85;;;10.02;;
43088;SDS011;28709;52.030;5.652;2023-11-21T10:03:07;18.52;;;9.50;;
43088;SDS011;28709;52.030;5.652;2023-11-21T10:05:33;18.40;;;10.82;;
43088;SDS011;28709;52.030;5.652;2023-11-21T10:08:00;22.30;;;10.68;;
43088;SDS011;28709;52.030;5.652;2023-11-21T10:10:26;17.77;;;11.23;;
43088;SDS011;28709;52.030;5.652;2023-11-21T10:12:57;17.83;;;11.02;;
43088;SDS011;28709;52.030;5.652;2023-11-21T10:15:27;24.98;;;10.25;;
43088;SDS011;28709;52.030;5.652;2023-11-21T10:17:55;16.02;;;10.05;;
43088;SDS011;28709;52.030;5.652;2023-11-21T10:20:22;14.80;;;9.95;;
43088;SDS011;28709;52.030;5.652;2023-11-21T10:22:49;18.50;;;11.18;;
43088;SDS011;28709;52.030;5.652;2023-11-21T10:25:15;18.65;;;11.05;;
43088;SDS011;28709;52.030;5.652;2023-11-21T10:27:41;17.63;;;10.07;;
43088;SDS011;28709;52.030;5.652;2023-11-21T10:30:08;19.88;;;12.07;;
43088;SDS011;28709;52.030;5.652;2023-11-21T10:32:41;22.08;;;12.13;;
43088;SDS011;28709;52.030;5.652;2023-11-21T10:35:08;18.63;;;10.60;;
43088;SDS011;28709;52.030;5.652;2023-11-21T10:37:40;19.55;;;11.88;;
43088;SDS011;28709;52.030;5.652;2023-11-21T10:40:06;17.15;;;10.75;;
43088;SDS011;28709;52.030;5.652;2023-11-21T10:42:37;16.10;;;10.63;;
43088;SDS011;28709;52.030;5.652;2023-11-21T10:45:07;17.85;;;10.63;;
43088;SDS011;28709;52.030;5.652;2023-11-21T10:47:40;16.35;;;9.95;;
43088;SDS011;28709;52.030;5.652;2023-11-21T10:50:07;16.50;;;9.93;;
43088;SDS011;28709;52.030;5.652;2023-11-21T10:52:36;16.77;;;10.82;;
43088;SDS011;28709;52.030;5.652;2023-11-21T10:55:15;16.60;;;9.98;;
43088;SDS011;28709;52.030;5.652;2023-11-21T10:57:43;25.67;;;11.07;;
43088;SDS011;28709;52.030;5.652;2023-11-21T11:00:13;16.98;;;10.02;;
43088;SDS011;28709;52.030;5.652;2023-11-21T11:02:40;18.25;;;9.48;;
43088;SDS011;28709;52.030;5.652;2023-11-21T11:05:07;15.65;;;9.82;;
43088;SDS011;28709;52.030;5.652;2023-11-21T11:07:36;18.75;;;9.60;;
43088;SDS011;28709;52.030;5.652;2023-11-21T11:10:05;14.77;;;9.05;;
43088;SDS011;28709;52.030;5.652;2023-11-21T11:12:33;12.55;;;8.60;;
43088;SDS011;28709;52.030;5.652;2023-11-21T11:15:01;16.23;;;9.45;;
43088;SDS011;28709;52.030;5.652;2023-11-21T11:17:28;19.60;;;10.13;;
43088;SDS011;28709;52.030;5.652;2023-11-21T11:19:54;15.20;;;9.57;;
43088;SDS011;28709;52.030;5.652;2023-11-21T11:27:48;15.40;;;9.32;;
43088;SDS011;28709;52.030;5.652;2023-11-21T11:33:38;14.30;;;8.80;;
43088;SDS011;28709;52.030;5.652;2023-11-21T11:38:49;16.13;;;9.13;;
43088;SDS011;28709;52.030;5.652;2023-11-21T11:41:23;15.90;;;9.52;;
43088;SDS011;28709;52.030;5.652;2023-11-21T11:43:51;18.27;;;9.82;;
43088;SDS011;28709;52.030;5.652;2023-11-21T11:46:18;19.00;;;9.63;;
43088;SDS011;28709;52.030;5.652;2023-11-21T11:48:46;17.73;;;9.13;;
43088;SDS011;28709;52.030;5.652;2023-11-21T11:51:13;17.17;;;9.45;;
43088;SDS011;28709;52.030;5.652;2023-11-21T11:53:42;14.98;;;8.90;;
43088;SDS011;28709;52.030;5.652;2023-11-21T11:56:23;16.52;;;9.07;;
43088;SDS011;28709;52.030;5.652;2023-11-21T11:58:50;12.95;;;7.85;;
43088;SDS011;28709;52.030;5.652;2023-11-21T12:01:21;11.63;;;7.07;;
43088;SDS011;28709;52.030;5.652;2023-11-21T12:06:56;12.88;;;7.78;;
43088;SDS011;28709;52.030;5.652;2023-11-21T12:09:25;12.25;;;7.85;;
43088;SDS011;28709;52.030;5.652;2023-11-21T12:11:52;11.23;;;7.07;;
43088;SDS011;28709;52.030;5.652;2023-11-21T12:14:18;11.95;;;7.47;;
43088;SDS011;28709;52.030;5.652;2023-11-21T12:16:44;12.30;;;7.10;;
43088;SDS011;28709;52.030;5.652;2023-11-21T12:19:10;15.15;;;7.53;;
43088;SDS011;28709;52.030;5.652;2023-11-21T12:21:36;11.65;;;7.40;;
43088;SDS011;28709;52.030;5.652;2023-11-21T12:24:02;10.38;;;6.55;;
43088;SDS011;28709;52.030;5.652;2023-11-21T12:26:29;12.45;;;6.32;;
43088;SDS011;28709;52.030;5.652;2023-11-21T12:28:54;11.88;;;7.43;;
43088;SDS011;28709;52.030;5.652;2023-11-21T12:31:23;13.55;;;8.30;;
43088;SDS011;28709;52.030;5.652;2023-11-21T12:33:49;13.02;;;8.07;;
43088;SDS011;28709;52.030;5.652;2023-11-21T12:36:15;13.50;;;7.80;;
43088;SDS011;28709;52.030;5.652;2023-11-21T12:38:41;13.48;;;8.10;;
43088;SDS011;28709;52.030;5.652;2023-11-21T12:41:07;14.23;;;7.68;;
43088;SDS011;28709;52.030;5.652;2023-11-21T12:43:35;15.43;;;8.60;;
43088;SDS011;28709;52.030;5.652;2023-11-21T12:46:19;13.85;;;8.57;;
43088;SDS011;28709;52.030;5.652;2023-11-21T12:48:45;13.63;;;7.93;;
43088;SDS011;28709;52.030;5.652;2023-11-21T12:51:12;17.10;;;9.07;;
43088;SDS011;28709;52.030;5.652;2023-11-21T12:53:41;17.92;;;10.00;;
43088;SDS011;28709;52.030;5.652;2023-11-21T12:56:09;18.50;;;10.55;;
43088;SDS011;28709;52.030;5.652;2023-11-21T12:58:36;15.90;;;9.43;;
43088;SDS011;28709;52.030;5.652;2023-11-21T13:01:07;19.52;;;10.05;;
43088;SDS011;28709;52.030;5.652;2023-11-21T13:03:37;18.98;;;10.02;;
43088;SDS011;28709;52.030;5.652;2023-11-21T13:06:03;18.92;;;10.50;;
43088;SDS011;28709;52.030;5.652;2023-11-21T13:08:30;20.58;;;10.02;;
43088;SDS011;28709;52.030;5.652;2023-11-21T13:10:57;18.65;;;10.20;;
43088;SDS011;28709;52.030;5.652;2023-11-21T13:13:24;15.18;;;9.20;;
43088;SDS011;28709;52.030;5.652;2023-11-21T13:15:56;20.10;;;10.68;;
43088;SDS011;28709;52.030;5.652;2023-11-21T13:18:33;16.70;;;9.93;;
43088;SDS011;28709;52.030;5.652;2023-11-21T13:20:59;15.23;;;8.77;;
43088;SDS011;28709;52.030;5.652;2023-11-21T13:23:38;16.10;;;8.75;;
43088;SDS011;28709;52.030;5.652;2023-11-21T13:26:05;17.45;;;10.13;;
43088;SDS011;28709;52.030;5.652;2023-11-21T13:28:32;14.85;;;10.20;;
43088;SDS011;28709;52.030;5.652;2023-11-21T13:31:02;16.50;;;9.75;;
43088;SDS011;28709;52.030;5.652;2023-11-21T13:33:35;18.80;;;10.23;;
43088;SDS011;28709;52.030;5.652;2023-11-21T13:36:03;14.63;;;9.65;;
43088;SDS011;28709;52.030;5.652;2023-11-21T13:38:32;16.33;;;9.35;;
43088;SDS011;28709;52.030;5.652;2023-11-21T13:41:00;16.83;;;10.20;;
43088;SDS011;28709;52.030;5.652;2023-11-21T13:43:26;15.57;;;9.55;;
43088;SDS011;28709;52.030;5.652;2023-11-21T13:45:53;15.85;;;8.90;;
43088;SDS011;28709;52.030;5.652;2023-11-21T13:48:31;17.38;;;9.40;;
43088;SDS011;28709;52.030;5.652;2023-11-21T13:51:07;18.10;;;10.75;;
43088;SDS011;28709;52.030;5.652;2023-11-21T13:53:41;15.30;;;9.73;;
43088;SDS011;28709;52.030;5.652;2023-11-21T13:56:07;13.95;;;9.05;;
43088;SDS011;28709;52.030;5.652;2023-11-21T13:58:33;15.32;;;9.02;;
43088;SDS011;28709;52.030;5.652;2023-11-21T14:01:16;14.85;;;8.75;;
43088;SDS011;28709;52.030;5.652;2023-11-21T14:03:54;14.27;;;9.07;;
43088;SDS011;28709;52.030;5.652;2023-11-21T14:06:44;13.88;;;9.35;;
43088;SDS011;28709;52.030;5.652;2023-11-21T14:09:15;12.27;;;8.43;;
43088;SDS011;28709;52.030;5.652;2023-11-21T14:11:50;12.98;;;7.32;;
43088;SDS011;28709;52.030;5.652;2023-11-21T14:14:21;12.95;;;7.28;;
43088;SDS011;28709;52.030;5.652;2023-11-21T14:16:49;12.23;;;6.50;;
43088;SDS011;28709;52.030;5.652;2023-11-21T14:19:15;10.52;;;6.88;;
43088;SDS011;28709;52.030;5.652;2023-11-21T14:21:42;11.73;;;7.25;;
43088;SDS011;28709;52.030;5.652;2023-11-21T14:24:08;14.95;;;7.50;;
43088;SDS011;28709;52.030;5.652;2023-11-21T14:26:34;11.90;;;6.45;;
43088;SDS011;28709;52.030;5.652;2023-11-21T14:29:00;15.30;;;7.93;;
43088;SDS011;28709;52.030;5.652;2023-11-21T14:31:26;16.40;;;8.02;;
43088;SDS011;28709;52.030;5.652;2023-11-21T14:33:54;14.35;;;8.23;;
43088;SDS011;28709;52.030;5.652;2023-11-21T14:36:19;16.95;;;8.40;;
43088;SDS011;28709;52.030;5.652;2023-11-21T14:38:45;16.20;;;9.00;;
43088;SDS011;28709;52.030;5.652;2023-11-21T14:41:11;19.63;;;10.70;;
43088;SDS011;28709;52.030;5.652;2023-11-21T14:43:38;20.63;;;11.63;;
43088;SDS011;28709;52.030;5.652;2023-11-21T14:46:04;17.48;;;9.48;;